Indianapolis, Indiana
Current Conditions -  °F | °C
As of 9:54 PM on Sunday 23 Nov 2014 (Local Time) from KIND Reporting Station
Moderate Rain Moderate Rain  
Wind Chill: 52°   Ceiling: 700
Heat Index: 52°   Visibility: 4mi
Dew Point: 52°   Wind: 14mph
Humidity: 100%   Direction: 150°SSE
Pressure: 29.19"   Gusts: 24mph
Location:  39.77°N, 86.15°W
Report Text: KIND 240254Z 15012G21KT 4SM RA BR BKN007 OVC011 11/11 A2919 RMK AO2 SLP884 P0019 60070 T01110111 58061
Loading
Personal Weather Stations






























Interactive Weather Map New forecast layout! Learn more

10-Day Weather Forecast

Advertisements
Track Severe Weather on mobile